Aviatik   Themenpakete

TAF Europa  Beispiel


Deutschland

VQLA23 LSSW 121853
MeteoSchweiz / MeteoSuisse / MeteoSvizzera / MeteoSwiss
TAF LSZHZURICH 121725Z 1218/1324 26007KT 9999 FEW050 TX27/1315Z TN14/1305Z BECMG 1218/1220 VRB03KT CAVOK PROB40 TEMPO 1302/1306 3000 MIFG BECMG 1308/1311 26008KT 9999 FEW050 TEMPO 1314/1324 BKN080 PROB30 TEMPO 1318/1324 -RA=
TAF LSGGGENEVA 121725Z 1218/1324 VRB02KT 9999 FEW060 TX28/1314Z TN15/1305Z BECMG 1218/1220 CAVOK BECMG 1308/1311 05007KT 9999 FEW040 BECMG 1318/1320 VRB02KT CAVOK=
TAF LSZALUGANO 121425Z 1215/1224 19005KT 9999 FEW050=
TAF LFSBBASLE-MULHOUSE 121700Z 1218/1318 25006KT CAVOK BECMG 1300/1302 7000 NSC PROB30 TEMPO 1302/1305 4000 MIFG BECMG 1306/1309 27010KT 9999 FEW035 TEMPO 1315/1318 29015KT FEW053 FEW055CB=
TAF LFSTSTRASBOURG ENTZHEIM 121700Z 1218/1318 VRB03KT 9999 FEW053 BECMG 1302/1304 4000 BR BECMG 1305/1307 9999 BKN030 TEMPO 1310/1318 4500 SHRA=
TAF EDDSSTUTTGART 121700Z 1218/1318 24005KT 9999 SCT045 BECMG 1304/1306 BKN014 TEMPO 1306/1312 4000 RA BKN008 BECMG 1308/1310 30008KT BKN035 TEMPO 1312/1318 29015G25KT 3000 SHRA PROB30 TSRA SCT025CB=
TAF EDDRSAARBRUCKEN 121700Z 1218/1318 27007KT 9999 FEW040 PROB30 TEMPO 1303/1309 3500 BR BKN006 PROB30 TEMPO 1309/1316 SHRA SCT030CB=
TAF RRAEDNYFRIEDRICHSHAFEN 121400Z 1215/1221 24005KT 9999 FEW035=
TAF EDNYFRIEDRICHSHAFEN 121100Z 1212/1221 21005KT 9999 SCT040=
TAF EDNYFRIEDRICHSHAFEN 121700Z 1218/1221 24005KT 9999 FEW035=
TAF RRAEDMAAUGSBURG MUHLHAUSEN 121400Z 1215/1220 27007KT CAVOK=
TAF EDMAAUGSBURG MUHLHAUSEN 121100Z 1212/1220 26008KT 9999 SCT040=
TAF RRHEDDMMUNICH 121700Z 1218/1324 27008KT 9999 FEW015 BKN035 TEMPO 1303/1313 RA BKN014 PROB40 TEMPO 1313/1324 4000 SHRA BKN020CB=
TAF EDDNNURNBERG 121700Z 1218/1318 28006KT 9999 SCT020 BKN040 TEMPO 1221/1309 4500 RADZ BKN013=
TAF RRAEDQMHOF PLAUEN 121400Z 1215/1220 26007KT 9999 SCT020 BKN035 BECMG 1217/1220 4500 RADZ BKN009=
TAF EDQMHOF PLAUEN 121100Z 1212/1220 26012KT 9999 FEW035 BECMG 1217/1220 26007KT 4500 RADZ BKN012=
TAF RRHEDDFFRANKFURT 121700Z 1218/1324 25008KT 9999 SCT040 PROB40 TEMPO 1221/1303 SHRA BKN030CB PROB30 TEMPO 1301/1307 3000 BR BKN009 TEMPO 1309/1314 SCT040CB BECMG 1316/1318 31006KT=
TAF RRAEDDKKOLN-BONN 121700Z 1218/1324 33009KT 9999 BKN025 TEMPO 1218/1220 4000 -RA BR BKN012 BECMG 1219/1220 VRB03KT PROB30 TEMPO 1304/1308 0900 FG BKN004=
TAF RRAEDLWDORTMUND WICKEDE 121700Z 1218/1222 25004KT 9999 BKN025 TEMPO 1218/1220 3000 RA BKN010=
TAF CCBEDLWDORTMUND WICKEDE 121455Z 1215/1222 25010KT 9999 BKN030 TEMPO 1215/1217 28015KT 3000 RA BKN010 PROB30 TEMPO 1215/1216 1500 +RA BECMG 1217/1219 26005KT=
TAF EDLWDORTMUND WICKEDE 121400Z 1215/1222 25010KT 9999 BKN030 TEMPO 1215/1217 28015KT 3000 RA BKN010 BECMG 1217/1219 26005KT=
TAF RRAEDDLDUSSELDORF 121700Z 1218/1318 VRB03KT 9999 BKN012 TEMPO 1218/1219 3500 -RA BR BKN005 BECMG 1219/1221 BKN030 PROB30 TEMPO 1304/1308 1200 BR BKN008 BECMG 1312/1315 29008KT=
TAF RRAEDDGMUNSTER-OSNABRUCK 121700Z 1218/1318 26007KT 9999 SCT015 BKN040 BECMG 1220/1224 VRB03KT PROB40 TEMPO 1304/1308 1200 MIFG BKN008 BECMG 1306/1308 29010KT=
TAF RRAEDLPPADERBORN LIPPSTAD 121700Z 1218/1222 26004KT 8000 BKN020 TEMPO 1218/1220 3000 RA BKN003=
TAF CCAEDLPPADERBORN LIPPSTAD 121435Z 1215/1222 26008KT 9999 BKN030 TEMPO 1215/1217 3000 RA BKN013=
TAF EDLPPADERBORN LIPPSTAD 121400Z 1215/1222 26008KT 9999 BKN030 TEMPO 1215/1217 RA BKN013=
TAF EDDVHANNOVER 121700Z 1218/1318 27010KT 9999 SCT040 PROB30 TEMPO 1303/1307 BKN008 PROB40 TEMPO 1310/1318 29015G25KT=
TAF EDDHHAMBURG 121700Z 1218/1324 28010KT 9999 SCT035 PROB30 TEMPO 1222/1304 SHRA BKN015CB PROB30 TEMPO 1303/1307 BKN008 TEMPO 1309/1318 30015G25KT BECMG 1318/1320 27005KT=
TAF EDDTBERLIN TEGEL 121700Z 1218/1318 25010KT 9999 SCT030 BECMG 1218/1220 27005KT BECMG 1303/1306 27010KT BECMG 1306/1309 28015G25KT BECMG 1316/1318 29010KT=
TAF EDDBBERLIN-SCHONEFELD 121700Z 1218/1318 25010KT 9999 SCT030 BECMG 1218/1220 27005KT BECMG 1303/1306 27010KT BECMG 1306/1309 28015G25KT BECMG 1316/1318 29010KT=
TAF EDDCDRESDEN 121700Z 1218/1318 26010KT 9999 BKN030 TEMPO 1218/1303 3500 RA BKN012 PROB30 TEMPO 1303/1307 BKN010 BECMG 1308/1311 29015G25KT=
TAF EDDEERFURT 121700Z 1218/1318 26012KT 9999 BKN030 TEMPO 1218/1223 3500 RA BKN012 BECMG 1308/1311 29015G25KT=
TAF EDDPLEIPZIG 121700Z 1218/1318 26012KT 9999 BKN030 TEMPO 1218/1222 3500 RA BKN012 BECMG 1308/1311 29015G25KT=





Nordfrankreich

VQLA25 LSSW 121922
MeteoSchweiz / MeteoSuisse / MeteoSvizzera / MeteoSwiss
TAF LSZHZURICH 121725Z 1218/1324 26007KT 9999 FEW050 TX27/1315Z TN14/1305Z BECMG 1218/1220 VRB03KT CAVOK PROB40 TEMPO 1302/1306 3000 MIFG BECMG 1308/1311 26008KT 9999 FEW050 TEMPO 1314/1324 BKN080 PROB30 TEMPO 1318/1324 -RA=
TAF LSGGGENEVA 121725Z 1218/1324 VRB02KT 9999 FEW060 TX28/1314Z TN15/1305Z BECMG 1218/1220 CAVOK BECMG 1308/1311 05007KT 9999 FEW040 BECMG 1318/1320 VRB02KT CAVOK=
TAF LSZALUGANO 121425Z 1215/1224 19005KT 9999 FEW050=
TAF LFSBBASLE-MULHOUSE 121700Z 1218/1318 25006KT CAVOK BECMG 1300/1302 7000 NSC PROB30 TEMPO 1302/1305 4000 MIFG BECMG 1306/1309 27010KT 9999 FEW035 TEMPO 1315/1318 29015KT FEW053 FEW055CB=
TAF LFSTSTRASBOURG ENTZHEIM 121700Z 1218/1318 VRB03KT 9999 FEW053 BECMG 1302/1304 4000 BR BECMG 1305/1307 9999 BKN030 TEMPO 1310/1318 4500 SHRA=
TAF LFSDDIJON LONGVIC 121100Z 1212/1224 04005KT CAVOK=
TAF LFMLMARSEILLE PROVENCE 121700Z 1218/1324 20010KT CAVOK BECMG 1219/1221 10005KT BECMG 1307/1309 28008KT FEW040 BECMG 1312/1314 20012KT BECMG 1318/1320 VRB02KT CAVOK TX32/1315Z TN22/1304Z=
TAF LFLLLYON SAINT EXUPERY 121700Z 1218/1324 34010KT CAVOK=
TAF LFMNNICE COTE D'AZUR 121700Z 1218/1324 17004KT 9999 FEW020 BECMG 1218/1220 35006KT BECMG 1307/1309 16006KT BECMG 1311/1313 FEW030CB BECMG 1318/1320 34006KT=
TAF LFJLMETZ NANCY LORRAINE 121700Z 1218/1318 27010KT CAVOK BECMG 1300/1304 7000 SCT010 BECMG 1306/1309 9999 BKN023 BKN070 TEMPO 1309/1318 6000 -RA SHRA BKN015=
TAF LFPBPARIS LE BOURGET 121700Z 1218/1318 28010KT CAVOK BECMG 1300/1303 SCT015 BKN020 PROB30 1304/1306 VRB02KT SCT008 BKN013 BECMG 1316/1318 36010KT SCT035 BKN045=
TAF LFPGPARIS DE GAULLE 121700Z 1218/1324 33007KT CAVOK BECMG 1301/1303 BKN015 PROB30 TEMPO 1303/1310 BKN012 BECMG 1312/1314 BKN025 TX26/1218Z TN17/1304Z=
TAF LFPOPARIS ORLY 121700Z 1218/1324 30008KT CAVOK BECMG 1220/1223 30006KT BECMG 1303/1306 SCT008 SCT030 BKN100 TEMPO 1306/1310 BKN008 BECMG 1310/1312 BKN040 BECMG 1315/1318 CAVOK TEMPO 1314/1319 30010KT BECMG 1321/1324 36006KT=
TAF LFPNTOUSSUS-LE-NOBLE 121400Z 1215/1224 30008KT CAVOK=
TAF LFQQLILLE LESQUIN 121700Z 1218/1324 27013KT 9999 BKN030 BECMG 1220/1223 BKN013 TEMPO 1223/1309 3000 RA OVC006 BECMG 1309/1311 33008KT SCT020=
TAF LFRGDEAUVILLE ST.GATIEN 121100Z 1212/1221 32008KT CAVOK BECMG 1219/1221 2000 BR BKN005=
TAF AAALFRKCAEN CARPIQUET 121400Z 1218/1224 30012KT 9999 OVC010 BECMG 1218/1220 3000 BR OVC005=
TAF AAALFRDDINARD PLEURTUIT 121700Z 1218/1318 36006KT 9999 OVC005 BECMG 1220/1222 3000 BR TEMPO 1300/1308 2000 DZ BR OVC003 BECMG 1310/1312 9999 NSW BKN015=
TAF LFRTST.BRIEUC ARMOR 121400Z 1215/1224 05010KT 9999 FEW017 BECMG 1217/1220 32007KT 8000 BKN010 BECMG 1221/1224 1500 BR OVC003 TEMPO 1221/1224 0300 FG VV///=
TAF LFRBBREST GUIPAVAS 121700Z 1218/1324 34008KT 9999 BKN007 BECMG 1221/1224 3000 DZ BR BKN003 PROB30 TEMPO 1300/1306 0600 FG OVC002 BECMG 1306/1309 BKN014 BECMG 1310/1314 SCT025=
TAF LFRHLORIENT LANN-BIHOU 121400Z 1215/1224 25008KT CAVOK BECMG 1221/1222 02005KT=
TAF LFRZST.NAZAIRE MONTOIR 121700Z 1218/1318 33008KT CAVOK TEMPO 1302/1308 3000 BR SCT010 PROB30 1302/1308 2000 BR BKN005 BECMG 1308/1310 SCT025=
TAF LFRSNANTES ATLANTIQUE 121700Z 1218/1324 36005KT CAVOK TEMPO 1302/1308 4000 BR SCT010 PROB30 1302/1308 2000 BR BKN004 BECMG 1308/1310 SCT025=
TAF LFOTTOURS VAL DE LOIRE 121700Z 1218/1303 27005KT CAVOK=
TAF EGLLLONDON HEATHROW 121658Z 1218/1324 26013KT 9999 FEW020 BKN025 BECMG 1301/1303 33005KT PROB30 TEMPO 1301/1308 6000 -RADZ BKN012=
TAF EGJJJERSEY 121701Z 1218/1303 28010KT 3000 BR BKN003 TEMPO 1218/1303 0300 -DZ BKN000=
TAF EGJBGUERNSEY 121701Z 1218/1303 28010KT 3000 BR BKN003 TEMPO 1218/1303 0300 -DZ BKN000=





S├╝dfrankreich

VQLA24 LSSW 121920
MeteoSchweiz / MeteoSuisse / MeteoSvizzera / MeteoSwiss
TAF LSZHZURICH 121725Z 1218/1324 26007KT 9999 FEW050 TX27/1315Z TN14/1305Z BECMG 1218/1220 VRB03KT CAVOK PROB40 TEMPO 1302/1306 3000 MIFG BECMG 1308/1311 26008KT 9999 FEW050 TEMPO 1314/1324 BKN080 PROB30 TEMPO 1318/1324 -RA=
TAF LSGGGENEVA 121725Z 1218/1324 VRB02KT 9999 FEW060 TX28/1314Z TN15/1305Z BECMG 1218/1220 CAVOK BECMG 1308/1311 05007KT 9999 FEW040 BECMG 1318/1320 VRB02KT CAVOK=
TAF LSZALUGANO 121425Z 1215/1224 19005KT 9999 FEW050=
TAF LFSBBASLE-MULHOUSE 121700Z 1218/1318 25006KT CAVOK BECMG 1300/1302 7000 NSC PROB30 TEMPO 1302/1305 4000 MIFG BECMG 1306/1309 27010KT 9999 FEW035 TEMPO 1315/1318 29015KT FEW053 FEW055CB=
TAF LFLBCHAMBERY AIX LES BAI 121700Z 1218/1318 33005KT CAVOK TEMPO 1305/1307 SCT030=
TAF LFLSGRENOBLE ST.GEOIRS 121700Z 1218/1318 35010KT 9999 FEW050 BECMG 1222/1224 VRB02KT CAVOK BECMG 1309/1311 36010KT FEW040=
TAF LFLLLYON SAINT EXUPERY 121700Z 1218/1324 34010KT CAVOK=
TAF LFLYLYON BRON 121700Z 1218/1318 34010KT CAVOK=
TAF LFLCCLERMONT-FERRAND 121700Z 1218/1318 03006KT CAVOK BECMG 1301/1304 VRB02KT PROB30 TEMPO 1303/1306 7000 MIFG SCT010 BECMG 1308/1310 06006KT TEMPO 1310/1315 SCT045=
TAF RRALFTWNIMES GARONS 121139Z 1212/1221 02010KT CAVOK=
TAF LFMTMONTPELLIER MEDITERA 121700Z 1218/1318 24005KT CAVOK BECMG 1220/1222 02010KT TEMPO 1309/1312 01015KT BECMG 1314/1316 20010KT=
TAF LFMPPERPIGNAN RIVESALT 121700Z 1218/1318 33012KT 9999 FEW080 BECMG 1218/1220 30015G30KT CAVOK TEMPO 1303/1308 30008KT BECMG 1310/1312 32010KT 9999 FEW060 BECMG 1316/1318 30015KT=
TAF LFMLMARSEILLE PROVENCE 121700Z 1218/1324 20010KT CAVOK BECMG 1219/1221 10005KT BECMG 1307/1309 28008KT FEW040 BECMG 1312/1314 20012KT BECMG 1318/1320 VRB02KT CAVOK TX32/1315Z TN22/1304Z=
TAF LFTHHYERES LE PALYVESTRE 121700Z 1218/1318 22012KT 9999 FEW030 BECMG 1222/1224 04005KT CAVOK TEMPO 1303/1306 10007KT 3000 SCT015 BECMG 1309/1311 15012KT 9999 FEW030=
TAF LFMNNICE COTE D'AZUR 121700Z 1218/1324 17004KT 9999 FEW020 BECMG 1218/1220 35006KT BECMG 1307/1309 16006KT BECMG 1311/1313 FEW030CB BECMG 1318/1320 34006KT=
TAF LFKBBASTIA 121700Z 1218/1318 04005KT 9999 SCT025 BECMG 1218/1220 24004KT CAVOK BECMG 1306/1308 14012KT 9999 SCT020 SCT040 BECMG 1309/1311 FEW015 SCT020CB PROB40 TEMPO 1312/1317 TS SCT015 SCT020CB TX28/1312Z TN19/1303Z=
TAF LFKCCALVI ST.CATHERINE 121700Z 1218/1318 VRB02KT CAVOK BECMG 1218/1220 18010KT BECMG 1307/1309 35012KT BECMG 1310/1312 FEW040CB BECMG 1317/1318 VRB02KT NSC=
TAF LFKJAJACCIO 121700Z 1218/1318 23010KT 9999 FEW050TCU BECMG 1218/1220 06006KT CAVOK BECMG 1307/1309 24010KT FEW040 TEMPO 1312/1316 FEW040CB =
TAF LFBLLIMOGES BELLEGARDE 121700Z 1218/1318 04008KT 9999 FEW043 TEMPO 1218/1303 CAVOK BECMG 1309/1312 9999 SCT030=
TAF LFBDBORDEAUX MERIGNAC 121700Z 1218/1324 36010KT CAVOK PROB30 TEMPO 1302/1308 01004KT 4000 BCFG TEMPO 1310/1315 9999 SCT035 BECMG 1321/1324 36005KT =
TAF LFBOTOULOUSE BLAGNAC 121700Z 1218/1324 32008KT CAVOK=
TAF LFBTTARBES LOURDES PYREN 121700Z 1218/1318 VRB02KT 9999 FEW040=
TAF RRALFBZBIARRITZ BAYONNE 121700Z 1218/1318 34010KT CAVOK BECMG 1223/1302 VRB02KT PROB30 TEMPO 1300/1306 3000 BR BKN010 BECMG 1310/1312 32010KT=





Italien

VQLA26 LSSW 121924
MeteoSchweiz / MeteoSuisse / MeteoSvizzera / MeteoSwiss
TAF LSZHZURICH 121725Z 1218/1324 26007KT 9999 FEW050 TX27/1315Z TN14/1305Z BECMG 1218/1220 VRB03KT CAVOK PROB40 TEMPO 1302/1306 3000 MIFG BECMG 1308/1311 26008KT 9999 FEW050 TEMPO 1314/1324 BKN080 PROB30 TEMPO 1318/1324 -RA=
TAF LSGGGENEVA 121725Z 1218/1324 VRB02KT 9999 FEW060 TX28/1314Z TN15/1305Z BECMG 1218/1220 CAVOK BECMG 1308/1311 05007KT 9999 FEW040 BECMG 1318/1320 VRB02KT CAVOK=
TAF LSZALUGANO 121425Z 1215/1224 19005KT 9999 FEW050=
TAF LFSBBASLE-MULHOUSE 121700Z 1218/1318 25006KT CAVOK BECMG 1300/1302 7000 NSC PROB30 TEMPO 1302/1305 4000 MIFG BECMG 1306/1309 27010KT 9999 FEW035 TEMPO 1315/1318 29015KT FEW053 FEW055CB=
TAF LFMNNICE COTE D'AZUR 121700Z 1218/1324 17004KT 9999 FEW020 BECMG 1218/1220 35006KT BECMG 1307/1309 16006KT BECMG 1311/1313 FEW030CB BECMG 1318/1320 34006KT=
TAF LFKBBASTIA 121700Z 1218/1318 04005KT 9999 SCT025 BECMG 1218/1220 24004KT CAVOK BECMG 1306/1308 14012KT 9999 SCT020 SCT040 BECMG 1309/1311 FEW015 SCT020CB PROB40 TEMPO 1312/1317 TS SCT015 SCT020CB TX28/1312Z TN19/1303Z=
TAF LFKJAJACCIO 121700Z 1218/1318 23010KT 9999 FEW050TCU BECMG 1218/1220 06006KT CAVOK BECMG 1307/1309 24010KT FEW040 TEMPO 1312/1316 FEW040CB =
TAF LFLLLYON SAINT EXUPERY 121700Z 1218/1324 34010KT CAVOK=
TAF LFMLMARSEILLE PROVENCE 121700Z 1218/1324 20010KT CAVOK BECMG 1219/1221 10005KT BECMG 1307/1309 28008KT FEW040 BECMG 1312/1314 20012KT BECMG 1318/1320 VRB02KT CAVOK TX32/1315Z TN22/1304Z=
TAF RRALIMEBERGAMO ORIO AL SERI 121808Z 1219/1318 03005KT CAVOK=
TAF LIMEBERGAMO ORIO AL SERI 121700Z 1218/1318 NIL=
TAF LIMCMILAN MALPENSA 121700Z 1218/1318 34005KT CAVOK=
TAF LIMLMILAN LINATE 121700Z 1218/1318 05005KT CAVOK=
TAF LIMNCAMERI 121400Z 1215/1224 VRB04KT 9999 FEW030 BECMG 1216/1218 CAVOK=
TAF RRBLIMNCAMERI 121800Z 1215/1224 CNL=
TAF CCALIMNCAMERI 121400Z 1215/1224 VRB04KT 9999 FEW030 BECMG 1216/1218 CAVOK=
TAF LIMFTORINO CASELLE 121700Z 1218/1318 04005KT 9999 SCT035=
TAF LIMJGENOA 121700Z 1218/1318 03005KT CAVOK BECMG 1309/1311 16010KT=
TAF RRALIPBBOLZANO 121700Z 1218/1303 03005KT 9999 FEW070=
TAF LIPXVERONA VILLAFRANCA 121400Z 1215/1224 20005KT 9999 FEW035 BECMG 1216/1218 CAVOK=
TAF RRALIPXVERONA VILLAFRANCA 121700Z 1218/1303 01004KT CAVOK=
TAF RRALIPHTREVISO SAN ANGELO 121700Z 1218/1303 10006KT 9999 SCT030 TEMPO 1218/1219 7000 TSRA FEW025CB SCT030=
TAF LIPZVENICE TESSERA 121700Z 1218/1318 15010KT CAVOK BECMG 1220/1222 04005KT BECMG 1309/1311 16010KT=
TAF LIPEBOLOGNA 121700Z 1218/1318 VRB05KT CAVOK=
TAF RRALIPKFORLI 121700Z 1218/1303 10007KT 9999 SCT070=
TAF RRBLIRQFLORENCE PERETOLA 121700Z 1218/1303 VRB05KT 9999 SCT070=
TAF LIPRRIMINI 121400Z 1215/1224 10014KT CAVOK BECMG 1219/1221 22004KT=
TAF RRALIPRRIMINI 121700Z 1218/1303 11010KT CAVOK BECMG 1219/1221 20003KT=
TAF RRGLIRPPISA 121700Z 1218/1318 30010KT CAVOK BECMG 1218/1221 10003KT TEMPO 1302/1305 5000 BR NSC BECMG 1309/1312 26010KT 9999 FEW030=
TAF RRBLIRSGROSSETO 121700Z 1218/1303 VRB03KT CAVOK=
TAF LIRAROME CIAMPINO 121700Z 1218/1318 04005KT CAVOK BECMG 1308/1310 24010KT 9999 SCT020 TEMPO 1312/1316 FEW020CB=
TAF LIRFROME FIUMICINO 121700Z 1218/1318 VRB05KT CAVOK TEMPO 1302/1306 5000 BR BECMG 1308/1310 21012KT TEMPO 1310/1316 BKN015=
TAF LIRNNAPLES 121700Z 1218/1318 VRB05KT CAVOK BECMG 1308/1310 20010KT=
TAF RRALIEOOLBIA COSTA SMERALDA 121700Z 1218/1303 VRB05KT 9999 SCT025=
TAF RRALIEAALGHERO FERTILIA 121700Z 1218/1303 VRB05KT 9999 SCT025=
TAF RRALIBDBARI 121700Z 1218/1303 VRB04KT 9999 SCT025=
TAF RRALIBRBRINDISI 121700Z 1218/1303 30015KT CAVOK BECMG 1221/1223 5000 BR SCT010=
TAF RRALICRREGGIO CALABRIA 121700Z 1218/1303 35008KT 9999 SCT025=
TAF LICCCATANIA FONTAN ARROS 121700Z 1218/1318 VRB05KT CAVOK BECMG 1307/1309 10013KT=
TAF LICJPALERMO PUNTA RAISI 121700Z 1218/1318 16010KT 9999 FEW025 BECMG 1308/1310 04014KT=
TAF LMMLMALTA LUQA 121700Z 1218/1303 VRB05KT CAVOK TEMPO 1218/1303 9999 FEW012=





Oesterreich/Ungarn

VQLA22 LSSW 121854
MeteoSchweiz / MeteoSuisse / MeteoSvizzera / MeteoSwiss
TAF LSZHZURICH 121725Z 1218/1324 26007KT 9999 FEW050 TX27/1315Z TN14/1305Z BECMG 1218/1220 VRB03KT CAVOK PROB40 TEMPO 1302/1306 3000 MIFG BECMG 1308/1311 26008KT 9999 FEW050 TEMPO 1314/1324 BKN080 PROB30 TEMPO 1318/1324 -RA=
TAF LSGGGENEVA 121725Z 1218/1324 VRB02KT 9999 FEW060 TX28/1314Z TN15/1305Z BECMG 1218/1220 CAVOK BECMG 1308/1311 05007KT 9999 FEW040 BECMG 1318/1320 VRB02KT CAVOK=
TAF LSZALUGANO 121425Z 1215/1224 19005KT 9999 FEW050=
TAF LFSBBASLE-MULHOUSE 121700Z 1218/1318 25006KT CAVOK BECMG 1300/1302 7000 NSC PROB30 TEMPO 1302/1305 4000 MIFG BECMG 1306/1309 27010KT 9999 FEW035 TEMPO 1315/1318 29015KT FEW053 FEW055CB=
TAF RRAEDNYFRIEDRICHSHAFEN 121400Z 1215/1221 24005KT 9999 FEW035=
TAF EDNYFRIEDRICHSHAFEN 121100Z 1212/1221 21005KT 9999 SCT040=
TAF EDNYFRIEDRICHSHAFEN 121700Z 1218/1221 24005KT 9999 FEW035=
TAF RRHEDDFFRANKFURT 121700Z 1218/1324 25008KT 9999 SCT040 PROB40 TEMPO 1221/1303 SHRA BKN030CB PROB30 TEMPO 1301/1307 3000 BR BKN009 TEMPO 1309/1314 SCT040CB BECMG 1316/1318 31006KT=
TAF RRHEDDMMUNICH 121700Z 1218/1324 27008KT 9999 FEW015 BKN035 TEMPO 1303/1313 RA BKN014 PROB40 TEMPO 1313/1324 4000 SHRA BKN020CB=
TAF EDDSSTUTTGART 121700Z 1218/1318 24005KT 9999 SCT045 BECMG 1304/1306 BKN014 TEMPO 1306/1312 4000 RA BKN008 BECMG 1308/1310 30008KT BKN035 TEMPO 1312/1318 29015G25KT 3000 SHRA PROB30 TSRA SCT025CB=
TAF EDDHHAMBURG 121700Z 1218/1324 28010KT 9999 SCT035 PROB30 TEMPO 1222/1304 SHRA BKN015CB PROB30 TEMPO 1303/1307 BKN008 TEMPO 1309/1318 30015G25KT BECMG 1318/1320 27005KT=
TAF LOWSSALZBURG 121730Z 1218/1318 30005KT 9999 FEW050 BKN300 TX21/1312Z TN15/1303Z BECMG 1218/1220 15005KT CAVOK BECMG 1305/1307 30006KT SCT050 BKN100 TEMPO 1306/1312 29008KT -SHRA SCT040 BKN060 TEMPO 1312/1318 31013KT 6000 SHRA SCT025 BKN040=
TAF RRALOIHDORNBIRN HOHENEMS 121130Z 1212/1224 VRB02KT 9999 SCT050=
TAF AAALOIHDORNBIRN HOHENEMS 121718Z 1212/1224 CNL=
TAF LOWIINNSBRUCK 121730Z 1218/1318 10007KT 9999 FEW060 TX23/1312Z TN14/1303Z BECMG 1219/1220 VRB02KT BECMG 1309/1311 09005KT SCT050 BKN080 TEMPO 1314/1318 VRB10KT SHRA SCT045TCU BKN070 PROB30 1314/1318 27010G25KT TSRA SCT035CB BKN050=
TAF LOWLLINZ 121730Z 1218/1324 28004KT 9999 FEW045 SCT090 BKN250 TX20/1312Z TN16/1323Z TEMPO 1304/1318 29012KT -SHRA SCT030 BKN080 PROB30 TEMPO 1309/1315 30017KT 4000 SHRA SCT017 FEW035CB BKN040=
TAF LOWKKLAGENFURT 121730Z 1218/1318 VRB02KT 9999 FEW060 SCT100 TX27/1314Z TN15/1303Z BECMG 1312/1314 FEW060TCU BKN100 TEMPO 1316/1318 SHRA=
TAF LOWGGRAZ 121730Z 1218/1324 VRB02KT 9999 FEW060 SCT100 TX26/1312Z TN16/1303Z BECMG 1311/1314 FEW050CB BKN080 TEMPO 1314/1400 SHRA PROB30 TEMPO 1315/1319 VRB15G25KT 4000 TSRA SCT040CB BKN050=
TAF LOWWVIENNA SCHWECHAT 121730Z 1218/1324 27007KT 9999 FEW055 BKN090 TX24/1312Z TN17/1303Z BECMG 1220/1222 23004KT BECMG 1302/1304 30011KT SCT040 BKN060 TEMPO 1304/1314 32015G25KT 7000 SHRA FEW035TCU BKN040=
TAF LHBPBUDAPEST 121700Z 1218/1318 30012KT 9999 SCT045 BKN080 BECMG 1218/1221 28005KT BECMG 1306/1309 27012KT TEMPO 1310/1318 28014G24KT 9999 -SHRA SCT035CB BKN046=





Skandinavien

VQLA30 LSSW 121656
MeteoSchweiz / MeteoSuisse / MeteoSvizzera / MeteoSwiss
TAF LSZHZURICH 121425Z 1215/1321 28004KT 9999 FEW045 TX26/1215Z TN14/1305Z TX27/1315Z PROB30 TEMPO 1302/1306 4000 MIFG TEMPO 1315/1321 BKN080 PROB30 TEMPO 1318/1321 -RA=
TAF LSGGGENEVA 121425Z 1215/1321 05006KT 9999 FEW040 TX27/1215Z TN15/1306Z TX28/1314Z BECMG 1218/1220 CAVOK BECMG 1308/1311 9999 FEW040=
TAF LSZALUGANO 121425Z 1215/1224 19005KT 9999 FEW050=
TAF LFSBBASLE-MULHOUSE 121100Z 1212/1312 32004KT 9999 FEW040 BECMG 1218/1220 25004KT CAVOK TEMPO 1300/1305 VRB02KT 5000 MIFG BECMG 1308/1310 27008KT FEW045=
TAF RRGEDDMMUNICH 121100Z 1212/1318 27008KT 9999 SCT035 PROB40 TEMPO 1305/1313 RA BKN014 TEMPO 1313/1318 4500 SHRA PROB30 TSRA BKN025CB=
TAF EDDSSTUTTGART 121100Z 1212/1312 28010KT 9999 SCT040 BECMG 1218/1220 25005KT BECMG 1304/1306 03004KT BKN012 TEMPO 1306/1312 4000 SHRA BKN007=
TAF RRGEDDFFRANKFURT 121100Z 1212/1318 25010KT 9999 SCT040 PROB30 TEMPO 1220/1222 SHRA SCT040CB BECMG 1221/1223 26005KT PROB30 TEMPO 1303/1306 4500 BR=
TAF EDDEERFURT 121100Z 1212/1312 26012KT 9999 SCT035 PROB40 TEMPO 1212/1218 28015G25KT PROB40 TEMPO 1214/1301 4000 SHRA BKN020CB PROB30 TEMPO 1302/1306 BKN010=
TAF EDDVHANNOVER 121100Z 1212/1312 27013KT 9999 SCT025 BKN040 TEMPO 1212/1217 28015G25KT SHRA BKN012 BECMG 1216/1218 27008KT BECMG 1308/1310 28015G25KT=
TAF EDDHHAMBURG 121100Z 1212/1318 28015G25KT 9999 SCT020 BKN030 TEMPO 1212/1215 SHRA BKN012 BECMG 1217/1219 27008KT PROB30 TEMPO 1302/1306 BKN008 BECMG 1307/1309 29015G25KT TEMPO 1307/1312 4000 SHRA BKN012 BECMG 1316/1318 28012KT=
TAF EKCHCOPENHAGEN KASTRUP 121440Z 1215/1315 28012KT 9999 SCT025 TEMPO 1215/1307 -SHRA SCT015CB=
TAF EKBIBILLUND 121440Z 1215/1315 28010KT 9999 SCT025 TEMPO 1215/1220 29012G22KT -SHRA BKN015CB TEMPO 1220/1307 5000 SHRA BKN012 BKN020CB TEMPO 1307/1315 -SHRA SCT020CB=
TAF EKAHAARHUS 121440Z 1215/1315 27010KT 9999 SCT025 TEMPO 1215/1307 -SHRA BKN015CB=
TAF RRDEKYTAALBORG 121440Z 1215/1315 27015KT 9999 SCT025 TEMPO 1215/1219 7000 -SHRA BKN015 FEW020CB TEMPO 1219/1309 5000 SHRA BKN012 SCT025CB=
TAF ENCNKRISTIANSAND KJEVI 121400Z 1215/1222 25008KT CAVOK=
TAF RREENZVSTAVANGER SOLA 121400Z 1215/1315 24008KT 9999 SCT025 BKN040 TEMPO 1215/1303 SHRA FEW008 SCT018CB BKN025 BECMG 1224/1303 34015KT=
TAF RREENZVSTAVANGER SOLA 121453Z 1215/1315 24008KT 9999 SCT025 BKN040 TEMPO 1215/1303 SHRA FEW008 SCT018CB BKN025 BECMG 1224/1303 34015KT=
TAF CCAENZVSTAVANGER SOLA 121401Z 1215/1315 24008KT 9999 SCT025 BKN040 TEMPO 1215/1303 SHRA FEW008 SCT018CB BKN025 BECMG 1224/1303 34015KT=
TAF RREENBRBERGEN FLESLAND 121400Z 1215/1315 VRB05KT 9999 FEW015 BKN040 TEMPO 1215/1224 -SHRA SCT010 FEW018CB BKN025 BECMG 1219/1222 35010KT=
TAF RREENBRBERGEN FLESLAND 121453Z 1215/1315 VRB05KT 9999 FEW015 BKN040 TEMPO 1215/1224 -SHRA SCT010 FEW018CB BKN025 BECMG 1219/1222 35010KT=
TAF CCAENBRBERGEN FLESLAND 121401Z 1215/1315 VRB05KT 9999 FEW015 BKN040 TEMPO 1215/1224 -SHRA SCT010 FEW018CB BKN025 BECMG 1219/1222 35010KT=
TAF RREENGMOSLO GARDERMOEN 121400Z 1215/1315 VRB05KT 9999 SCT030 PROB30 TEMPO 1215/1315 SHRA SCT030CB=
TAF RREENGMOSLO GARDERMOEN 121453Z 1215/1315 VRB05KT 9999 SCT030 PROB30 TEMPO 1215/1315 SHRA SCT030CB=
TAF CCAENGMOSLO GARDERMOEN 121401Z 1215/1315 VRB05KT 9999 SCT030 PROB30 TEMPO 1215/1315 SHRA SCT030CB=
TAF CCAENVATRONDHEIM VAERNES 121401Z 1215/1315 27008KT 9999 SCT018 BKN030 TEMPO 1215/1315 28018KT SHRA FEW010 FEW020CB BKN025 PROB30 TEMPO 1222/1306 BKN014=
TAF ENVATRONDHEIM VAERNES 121400Z 1215/1315 27008KT 9999 SCT018 BKN030 TEMPO 1215/1315 28018KT SHRA FEW010 FEW020CB BKN025 PROB30 TEMPO 1222/1306 BKN014=
TAF RREENBOBODO 121400Z 1215/1315 25010KT 9999 FEW015TCU SCT025 TEMPO 1215/1315 SHRA BKN012 TEMPO 1306/1312 24020KT=
TAF RREENBOBODO 121453Z 1215/1315 25010KT 9999 FEW015TCU SCT025 TEMPO 1215/1315 SHRA BKN012 TEMPO 1306/1312 24020KT=
TAF CCAENBOBODO 121401Z 1215/1315 25010KT 9999 FEW015TCU SCT025 TEMPO 1215/1315 SHRA BKN012 TEMPO 1306/1312 24020KT=
TAF ENTCTROMSO 121400Z 1215/1224 24008KT 9999 -SHRA SCT020 BKN040=
TAF ESMSMALMO STURUP 121130Z 1212/1312 27012KT 9999 SCT025 BKN040 TEMPO 1217/1312 SHRA BKN030CB=
TAF ESSVVISBY 121430Z 1215/1224 26010KT 9999 SCT020 PROB30 1215/1224 TSRA BKN020CB=
TAF ESSASTOCKHOLM ARLANDA 121130Z 1212/1312 33008KT 9999 SCT035 BECMG 1219/1221 18010KT PROB40 1300/1305 2000 BCFG BECMG 1301/1303 01007KT=
TAF ESOWSTOCKHOLM VASTERAS 121130Z 1212/1221 29006KT 9999 SCT040=
TAF ESOWSTOCKHOLM VASTERAS 121430Z 1215/1221 29006KT CAVOK=
TAF ESSPNORRKOPING 121430Z 1215/1222 27010KT 9999 SCT030 TEMPO 1215/1218 SHRA BKN030CB TEMPO 1215/1218 TSRA=
TAF ESNNSUNDSVALL-HARNOSAND 121130Z 1212/1220 32012KT CAVOK=
TAF ESNNSUNDSVALL-HARNOSAND 121430Z 1215/1220 32009KT CAVOK=
TAF ESPALULEA KALLAX 121400Z 1215/1223 33007KT 9999 SCT015 QFE 995 QNH 997=
TAF EFHKHELSINKI VANTAA 121436Z 1215/1315 24008KT 9999 FEW012 SCT080 TEMPO 1215/1220 FEW030CB PROB30 1215/1218 BKN012 SCT030CB PROB40 TEMPO 1309/1315 FEW050CB=
TAF EFTUTURKU 121436Z 1215/1315 29011KT 9999 FEW020 SCT040 PROB40 TEMPO 1309/1315 SCT040CB=
TAF EFTPTAMPERE-PIRKKALA 121440Z 1215/1315 27006KT 8000 -RA FEW012 BKN040 PROB40 1215/1218 6000 RA BKN006 SCT030CB PROB30 TEMPO 1308/1314 FEW040CB=





Benelux

VQLA28 LSSW 121857
MeteoSchweiz / MeteoSuisse / MeteoSvizzera / MeteoSwiss
TAF LSZHZURICH 121725Z 1218/1324 26007KT 9999 FEW050 TX27/1315Z TN14/1305Z BECMG 1218/1220 VRB03KT CAVOK PROB40 TEMPO 1302/1306 3000 MIFG BECMG 1308/1311 26008KT 9999 FEW050 TEMPO 1314/1324 BKN080 PROB30 TEMPO 1318/1324 -RA=
TAF LSGGGENEVA 121725Z 1218/1324 VRB02KT 9999 FEW060 TX28/1314Z TN15/1305Z BECMG 1218/1220 CAVOK BECMG 1308/1311 05007KT 9999 FEW040 BECMG 1318/1320 VRB02KT CAVOK=
TAF LSZALUGANO 121425Z 1215/1224 19005KT 9999 FEW050=
TAF LFSBBASLE-MULHOUSE 121700Z 1218/1318 25006KT CAVOK BECMG 1300/1302 7000 NSC PROB30 TEMPO 1302/1305 4000 MIFG BECMG 1306/1309 27010KT 9999 FEW035 TEMPO 1315/1318 29015KT FEW053 FEW055CB=
TAF LFSTSTRASBOURG ENTZHEIM 121700Z 1218/1318 VRB03KT 9999 FEW053 BECMG 1302/1304 4000 BR BECMG 1305/1307 9999 BKN030 TEMPO 1310/1318 4500 SHRA=
TAF LFMNNICE COTE D'AZUR 121700Z 1218/1324 17004KT 9999 FEW020 BECMG 1218/1220 35006KT BECMG 1307/1309 16006KT BECMG 1311/1313 FEW030CB BECMG 1318/1320 34006KT=
TAF LFLLLYON SAINT EXUPERY 121700Z 1218/1324 34010KT CAVOK=
TAF LFMLMARSEILLE PROVENCE 121700Z 1218/1324 20010KT CAVOK BECMG 1219/1221 10005KT BECMG 1307/1309 28008KT FEW040 BECMG 1312/1314 20012KT BECMG 1318/1320 VRB02KT CAVOK TX32/1315Z TN22/1304Z=
TAF RRAELLXLUXEMBOURG 121700Z 1218/1324 25010KT CAVOK BECMG 1222/1224 9999 BKN030 BKN100 TEMPO 1223/1308 4000 -RA RA BR SCT010 BKN020 BECMG 1308/1310 28007KT 9999 SCT015 BKN025 TEMPO 1310/1320 6000 -SHRA SHRA BKN012 BECMG 1320/1322 34005KT BKN020=
TAF LFJLMETZ NANCY LORRAINE 121700Z 1218/1318 27010KT CAVOK BECMG 1300/1304 7000 SCT010 BECMG 1306/1309 9999 BKN023 BKN070 TEMPO 1309/1318 6000 -RA SHRA BKN015=
TAF RRHEDDFFRANKFURT 121700Z 1218/1324 25008KT 9999 SCT040 PROB40 TEMPO 1221/1303 SHRA BKN030CB PROB30 TEMPO 1301/1307 3000 BR BKN009 TEMPO 1309/1314 SCT040CB BECMG 1316/1318 31006KT=
TAF EDDRSAARBRUCKEN 121700Z 1218/1318 27007KT 9999 FEW040 PROB30 TEMPO 1303/1309 3500 BR BKN006 PROB30 TEMPO 1309/1316 SHRA SCT030CB=
TAF RRAEDDKKOLN-BONN 121700Z 1218/1324 33009KT 9999 BKN025 TEMPO 1218/1220 4000 -RA BR BKN012 BECMG 1219/1220 VRB03KT PROB30 TEMPO 1304/1308 0900 FG BKN004=
TAF EDDHHAMBURG 121700Z 1218/1324 28010KT 9999 SCT035 PROB30 TEMPO 1222/1304 SHRA BKN015CB PROB30 TEMPO 1303/1307 BKN008 TEMPO 1309/1318 30015G25KT BECMG 1318/1320 27005KT=
TAF RRHEDDMMUNICH 121700Z 1218/1324 27008KT 9999 FEW015 BKN035 TEMPO 1303/1313 RA BKN014 PROB40 TEMPO 1313/1324 4000 SHRA BKN020CB=
TAF EDDSSTUTTGART 121700Z 1218/1318 24005KT 9999 SCT045 BECMG 1304/1306 BKN014 TEMPO 1306/1312 4000 RA BKN008 BECMG 1308/1310 30008KT BKN035 TEMPO 1312/1318 29015G25KT 3000 SHRA PROB30 TSRA SCT025CB=
TAF EBCICHARLEROI BRUSSELS S 121700Z 1218/1303 27008KT 9999 SCT020 BECMG 1222/1224 4000 RADZ BKN012 TEMPO 1300/1303 BKN008=
TAF EBBRBRUSSELS 121700Z 1218/1324 27007KT 9999 BKN014 BECMG 1218/1220 4000 RADZ BKN008 PROB30 TEMPO 1221/1224 BKN004 BECMG 1300/1302 2500 BR BECMG 1306/1309 9999 NSW SCT025=
TAF EBAWANTWERP 121700Z 1218/1303 27007KT 9999 BKN014 BECMG 1218/1220 4000 RADZ BKN008 PROB40 TEMPO 1220/1224 BKN004 BECMG 1300/1302 2500 BR=
TAF EBOSOSTEND 121700Z 1218/1324 27010KT 9999 BKN020 BECMG 1218/1220 4000 RADZ BKN008 BECMG 1300/1302 2500 BR BECMG 1303/1306 34006KT BECMG 1306/1309 9999 NSW SCT025=
TAF EHBKMAASTRICHT 121714Z 1218/1324 31009KT 9999 BKN020 TEMPO 1218/1315 6000 -SHRA SCT010 SCT012CB BKN015 PROB30 TEMPO 1218/1302 4000 SHRA SCT005 BKN007 SCT010CB BECMG 1222/1301 26006KT 3500 BR BKN006 PROB30 TEMPO 1300/1306 2000 BKN003 BECMG 1306/1309 30008KT 9999 NSW SCT012 BECMG 1321/1324 VRB03KT=
TAF CCAEHAMAMSTERDAM SCHIPHOL 121814Z 1218/1324 27008KT 9999 SCT012 SCT025 TEMPO 1218/1315 6000 -SHRA SCT012 SCT015CB BKN020 PROB30 TEMPO 1221/1303 3500 BR BKN006 BECMG 1301/1304 31008KT BECMG 1309/1312 SCT025 BECMG 1321/1324 VRB03KT=
TAF EHAMAMSTERDAM SCHIPHOL 121714Z 1218/1324 27008KT 9999 SCT012 BKN025 TEMPO 1218/1315 6000 -SHRA SCT012 SCT015CB BKN020 PROB30 TEMPO 1221/1303 3500 BKN006 BECMG 1301/1304 31008KT BECMG 1309/1312 SCT025 BECMG 1321/1324 VRB03KT=
TAF CCBEHRDROTTERDAM 121814Z 1218/1324 26007KT 9999 SCT012 SCT025 TEMPO 1218/1315 6000 -SHRA SCT012 SCT015CB BKN020 PROB30 1221/1303 3500 BR BKN005 BECMG 1301/1304 30007KT BECMG 1309/1312 SCT025 BECMG 1321/1324 VRB03KT=
TAF EHRDROTTERDAM 121715Z 1218/1324 26007KT 9999 SCT012 BKN025 TEMPO 1218/1315 6000 -SHRA SCT012 SCT015CB BKN020 PROB30 1221/1303 3500 BKN005 BECMG 1301/1304 30007KT BECMG 1309/1312 SCT025 BECMG 1321/1324 VRB03KT=
TAF EHGGGRONINGEN EELDE 121715Z 1218/1324 30009KT 9999 SCT025 SCT045 BECMG 1220/1224 25006KT TEMPO 1221/1316 6000 -SHRA SCT012 SCT015CB BKN020 PROB30 TEMPO 1303/1306 6000 BR BECMG 1307/1310 30008KT BECMG 1319/1322 VRB03KT=





Irland/Grossbritanien

VQLA29 LSSW 121805
MeteoSchweiz / MeteoSuisse / MeteoSvizzera / MeteoSwiss
TAF LSZHZURICH 121725Z 1218/1324 26007KT 9999 FEW050 TX27/1315Z TN14/1305Z BECMG 1218/1220 VRB03KT CAVOK PROB40 TEMPO 1302/1306 3000 MIFG BECMG 1308/1311 26008KT 9999 FEW050 TEMPO 1314/1324 BKN080 PROB30 TEMPO 1318/1324 -RA=
TAF LSGGGENEVA 121725Z 1218/1324 VRB02KT 9999 FEW060 TX28/1314Z TN15/1305Z BECMG 1218/1220 CAVOK BECMG 1308/1311 05007KT 9999 FEW040 BECMG 1318/1320 VRB02KT CAVOK=
TAF LSZALUGANO 121425Z 1215/1224 19005KT 9999 FEW050=
TAF LFSBBASLE-MULHOUSE 121700Z 1218/1318 25006KT CAVOK BECMG 1300/1302 7000 NSC PROB30 TEMPO 1302/1305 4000 MIFG BECMG 1306/1309 27010KT 9999 FEW035 TEMPO 1315/1318 29015KT FEW053 FEW055CB=
TAF LFSTSTRASBOURG ENTZHEIM 121700Z 1218/1318 VRB03KT 9999 FEW053 BECMG 1302/1304 4000 BR BECMG 1305/1307 9999 BKN030 TEMPO 1310/1318 4500 SHRA=
TAF LFLYLYON BRON 121700Z 1218/1318 34010KT CAVOK=
TAF LFPGPARIS DE GAULLE 121700Z 1218/1324 33007KT CAVOK BECMG 1301/1303 BKN015 PROB30 TEMPO 1303/1310 BKN012 BECMG 1312/1314 BKN025 TX26/1218Z TN17/1304Z=
TAF LFLLLYON SAINT EXUPERY 121700Z 1218/1324 34010KT CAVOK=
TAF LFMLMARSEILLE PROVENCE 121700Z 1218/1324 20010KT CAVOK BECMG 1219/1221 10005KT BECMG 1307/1309 28008KT FEW040 BECMG 1312/1314 20012KT BECMG 1318/1320 VRB02KT CAVOK TX32/1315Z TN22/1304Z=
TAF LFMNNICE COTE D'AZUR 121700Z 1218/1324 17004KT 9999 FEW020 BECMG 1218/1220 35006KT BECMG 1307/1309 16006KT BECMG 1311/1313 FEW030CB BECMG 1318/1320 34006KT=
TAF RRHEDDFFRANKFURT 121700Z 1218/1324 25008KT 9999 SCT040 PROB40 TEMPO 1221/1303 SHRA BKN030CB PROB30 TEMPO 1301/1307 3000 BR BKN009 TEMPO 1309/1314 SCT040CB BECMG 1316/1318 31006KT=
TAF EDDRSAARBRUCKEN 121700Z 1218/1318 27007KT 9999 FEW040 PROB30 TEMPO 1303/1309 3500 BR BKN006 PROB30 TEMPO 1309/1316 SHRA SCT030CB=
TAF EDDHHAMBURG 121700Z 1218/1324 28010KT 9999 SCT035 PROB30 TEMPO 1222/1304 SHRA BKN015CB PROB30 TEMPO 1303/1307 BKN008 TEMPO 1309/1318 30015G25KT BECMG 1318/1320 27005KT=
TAF RRHEDDMMUNICH 121700Z 1218/1324 27008KT 9999 FEW015 BKN035 TEMPO 1303/1313 RA BKN014 PROB40 TEMPO 1313/1324 4000 SHRA BKN020CB=
TAF EDDSSTUTTGART 121700Z 1218/1318 24005KT 9999 SCT045 BECMG 1304/1306 BKN014 TEMPO 1306/1312 4000 RA BKN008 BECMG 1308/1310 30008KT BKN035 TEMPO 1312/1318 29015G25KT 3000 SHRA PROB30 TSRA SCT025CB=
TAF EBBRBRUSSELS 121700Z 1218/1324 27007KT 9999 BKN014 BECMG 1218/1220 4000 RADZ BKN008 PROB30 TEMPO 1221/1224 BKN004 BECMG 1300/1302 2500 BR BECMG 1306/1309 9999 NSW SCT025=
TAF EBOSOSTEND 121700Z 1218/1324 27010KT 9999 BKN020 BECMG 1218/1220 4000 RADZ BKN008 BECMG 1300/1302 2500 BR BECMG 1303/1306 34006KT BECMG 1306/1309 9999 NSW SCT025=
TAF EGJBGUERNSEY 121701Z 1218/1303 28010KT 3000 BR BKN003 TEMPO 1218/1303 0300 -DZ BKN000=
TAF EGJJJERSEY 121701Z 1218/1303 28010KT 3000 BR BKN003 TEMPO 1218/1303 0300 -DZ BKN000=
TAF EGHISOUTHAMPTON 121400Z 1215/1222 28006KT 9999 BKN025 PROB30 1220/1222 7000 -RADZ BKN010=
TAF EGHISOUTHAMPTON 121701Z 1218/1222 29007KT 9999 SCT025 PROB30 1220/1222 7000 -RADZ BKN010=
TAF EGHHBOURNEMOUTH HURN 121701Z 1218/1301 29009KT 9999 FEW025 PROB30 1222/1301 7000 -RADZ BKN010=
TAF EGTEEXETER 121701Z 1218/1302 28009KT 9999 BKN020 PROB30 1223/1302 7000 -RADZ BKN012=
TAF CCAEGHDPLYMOUTH ROBOROUGH 121400Z 1215/1222 29011KT 9999 BKN013 PROB30 1218/1222 BKN008=
TAF EGHDPLYMOUTH ROBOROUGH 121701Z 1218/1222 28009KT 9999 BKN008 PROB30 1218/1222 BKN010=
TAF EGKKLONDON GATWICK 121658Z 1218/1324 26010KT 9999 SCT018 BKN024 BECMG 1302/1304 33006KT PROB40 TEMPO 1303/1309 6000 RADZ BKN009=
TAF EGLLLONDON HEATHROW 121658Z 1218/1324 26013KT 9999 FEW020 BKN025 BECMG 1301/1303 33005KT PROB30 TEMPO 1301/1308 6000 -RADZ BKN012=
TAF EGKBBIGGIN HILL 121103Z 1212/1221 25007KT 9999 BKN020 PROB30 TEMPO 1215/1221 8000 SHRA=
TAF EGKBBIGGIN HILL 121401Z 1215/1221 27007KT 9999 BKN020 PROB30 TEMPO 1215/1221 8000 SHRA BKN014=
TAF EGKBBIGGIN HILL 121700Z 1218/1221 27007KT 9999 BKN020 PROB30 TEMPO 1218/1221 4500 RA BKN014=
TAF EGMCSOUTHEND 121700Z 1218/1303 27010KT 9999 BKN025 PROB30 TEMPO 1218/1303 7000 RA BKN014 BECMG 1300/1303 33006KT=
TAF EGGWLUTON 121658Z 1218/1318 28008KT 9999 SCT018 BKN030=
TAF EGSSLONDON STANSTED 121658Z 1218/1324 28007KT 9999 BKN025=
TAF EGGDBRISTOL 121705Z 1218/1318 25011KT 0300 BKN001 TEMPO 1218/1221 3000 BR BKN003 PROB40 1221/1306 1200 -RADZ BR BECMG 1305/1308 VRB04KT 9999 SCT020 BECMG 1313/1316 26011KT=
TAF EGFFCARDIFF 121705Z 1218/1318 27012KT 8000 BKN005 PROB40 1219/1306 4000 -RADZ BR BKN003 PROB30 TEMPO 1221/1303 1200 RADZ BKN001 BECMG 1305/1308 VRB04KT 9999 SCT020 BECMG 1312/1315 27010KT=
TAF EGSCCAMBRIDGE 121103Z 1212/1221 26008KT 4000 RADZ BKN004 BECMG 1212/1214 9999 NSW BKN020 TEMPO 1214/1219 8000 RA SHRA BKN014=
TAF EGSHNORWICH 121401Z 1215/1222 28010KT 9999 SCT020=
TAF EGSHNORWICH 121700Z 1218/1222 28010KT 9999 SCT025=
TAF EGBBBIRMINGHAM 121659Z 1218/1318 30006KT 9999 SCT025 PROB30 TEMPO 1218/1222 7000 SHRA PROB40 1303/1307 6000=
TAF EGNXEAST MIDLANDS 121659Z 1218/1318 28010KT 9999 SCT030 PROB30 TEMPO 1218/1221 8000 SHRA PROB30 1303/1307 8000 BECMG 1312/1315 VRB03KT=
TAF EGCCMANCHESTER INTL 121659Z 1218/1324 28008KT 9999 SCT030=
TAF EGNMLEEDS BRADFORD 121659Z 1218/1318 28014KT 9999 SCT025 BECMG 1307/1310 VRB03KT=
TAF CCAEGNHBLACKPOOL 121318Z 1213/1221 26012KT 9999 SCT030 BECMG 1219/1221 32008KT=
TAF EGNHBLACKPOOL 121101Z 1212/1221 26012KT 9999 SCT030 BECMG 1219/1221 23008KT=
TAF EGNHBLACKPOOL 121402Z 1215/1221 26012KT 9999 SCT020 BECMG 1219/1221 32008KT=
TAF EGNHBLACKPOOL 121702Z 1218/1221 26012KT 9999 SCT020 BECMG 1219/1221 32008KT=
TAF EGNVTEESSIDE 121702Z 1218/1303 27015KT 9999 SCT035 BECMG 1220/1223 27005KT=
TAF EGNTNEWCASTLE 121659Z 1218/1318 28012KT 9999 SCT030 BECMG 1308/1311 VRB03KT=
TAF RRFEGPKPRESTWICK 121658Z 1218/1318 27010KT 9999 SCT015 BKN025=
TAF RRFEGPHEDINBURGH 121658Z 1218/1318 27012KT 9999 FEW025 SCT045 PROB30 TEMPO 1312/1318 7000 -SHRA=
TAF EGPFGLASGOW 121658Z 1218/1318 28008KT 9999 SCT015 BECMG 1221/1224 VRB03KT PROB30 TEMPO 1312/1318 7000 -SHRA=
TAF EGPDABERDEEN DYCE 121658Z 1218/1318 30012KT 9999 SCT040 BECMG 1306/1309 VRB03KT PROB30 TEMPO 1309/1318 8000 -SHRA=
TAF EGPOSTORNOWAY 121659Z 1218/1303 28012KT 9999 FEW015 SCT025=
TAF RRFEGAABELFAST ALDERGROVE 121659Z 1218/1318 29010KT 9999 FEW018 BKN028 PROB40 TEMPO 1300/1308 9000 BKN010 PROB30 TEMPO 1303/1306 BKN004=
TAF EIDWDUBLIN 121700Z 1218/1318 29012KT 9999 SCT018 BKN030 BECMG 1221/1224 VRB03KT TEMPO 1300/1308 4000 BR -DZ SCT007 BKN010 PROB30 TEMPO 1304/1307 0400 FG BKN001=
TAF RRGEINNSHANNON 121700Z 1218/1318 29012KT 9999 SCT012 BKN020 BECMG 1218/1220 VRB03KT SCT010 BKN012 TEMPO 1220/1305 3000 BR -DZ BKN005 BECMG 1309/1312 9999 SCT015 BKN025=
TAF EICKCORK 121700Z 1218/1318 31010KT 9999 SCT005 BKN012 BECMG 1218/1221 VRB03KT 3000 -DZ SCT002 BKN005 TEMPO 1222/1308 0200 FG OVC001 BECMG 1312/1315 9999 SCT007 BKN012=





Spanien / Portugal

VQLA27 LSSW 121651
MeteoSchweiz / MeteoSuisse / MeteoSvizzera / MeteoSwiss
TAF LSZHZURICH 121425Z 1215/1321 28004KT 9999 FEW045 TX26/1215Z TN14/1305Z TX27/1315Z PROB30 TEMPO 1302/1306 4000 MIFG TEMPO 1315/1321 BKN080 PROB30 TEMPO 1318/1321 -RA=
TAF LSGGGENEVA 121425Z 1215/1321 05006KT 9999 FEW040 TX27/1215Z TN15/1306Z TX28/1314Z BECMG 1218/1220 CAVOK BECMG 1308/1311 9999 FEW040=
TAF LSZALUGANO 121425Z 1215/1224 19005KT 9999 FEW050=
TAF LFSBBASLE-MULHOUSE 121100Z 1212/1312 32004KT 9999 FEW040 BECMG 1218/1220 25004KT CAVOK TEMPO 1300/1305 VRB02KT 5000 MIFG BECMG 1308/1310 27008KT FEW045=
TAF LFLLLYON SAINT EXUPERY 121100Z 1212/1318 34010KT CAVOK=
TAF LFLSGRENOBLE ST.GEOIRS 121100Z 1212/1312 36010KT 9999 SCT040 BECMG 1221/1223 VRB02KT CAVOK BECMG 1309/1311 36010KT FEW040=
TAF LFMLMARSEILLE PROVENCE 121100Z 1212/1318 26010KT 9999 FEW040 BECMG 1212/1214 20012KT BECMG 1218/1220 12005KT CAVOK BECMG 1306/1308 28008KT BECMG 1312/1314 20012KT FEW040 TX32/1315Z TN22/1304Z=
TAF LFMPPERPIGNAN RIVESALT 121100Z 1212/1312 34012KT 9999 FEW080 BECMG 1218/1220 30015G30KT CAVOK TEMPO 1303/1308 30008KT BECMG 1310/1312 32010KT 9999 FEW060=
TAF LFMNNICE COTE D'AZUR 121100Z 1212/1318 16007KT 9999 FEW020 TEMPO 1215/1218 19010KT BECMG 1219/1221 34008KT BECMG 1307/1309 16006KT BECMG 1310/1312 FEW030CB=
TAF LPPSPORTO SANTO 121030Z 1212/1318 04010KT 9999 SCT016 SCT030=
TAF LFBZBIARRITZ BAYONNE 121100Z 1212/1312 34010KT 9999 FEW025 SCT050 BECMG 1223/1302 VRB02KT 8000 PROB30 TEMPO 1303/1307 4000 BR BKN008 BECMG 1310/1312 32010KT=
TAF LEGEGIRONA 121100Z 1212/1312 14008KT 9999 SCT026 TX30/1214Z TN18/1306Z TEMPO 1213/1217 SCT024CB BECMG 1302/1304 02010KT=
TAF LEBLBARCELONA 121100Z 1212/1312 20012KT 9999 FEW025 TX29/1212Z TN22/1306Z BECMG 1300/1302 34008KT=
TAF LERSREUS 121400Z 1215/1224 17012KT 9999 FEW030=
TAF RRFLEVCVALENCIA 121100Z 1212/1312 11010KT 9999 SCT025 TX31/1312Z TN20/1305Z BECMG 1217/1220 04005KT=
TAF LEIBIBIZA 121400Z 1215/1224 08012KT 9999 FEW025=
TAF RRFLEPAPALMA DE MALLORCA 121100Z 1212/1312 05012KT 9999 SCT040 TX31/1214Z TN21/1304Z PROB30 TEMPO 1212/1216 RA=
TAF LEMHMENORCA 121400Z 1215/1224 02016KT 9999 FEW040=
TAF LEMDMADRID BARAJAS 121100Z 1212/1312 15004KT CAVOK TX35/1216Z TN23/1306Z BECMG 1214/1215 9999 SCT050 PROB30 TEMPO 1212/1218 17008G18KT FEW040CB SCT050 BECMG 1220/1222 VRB05KT PROB30 TEMPO 1310/1312 SHRA FEW040CB=
TAF LEALALICANTE 121100Z 1212/1312 09012KT 9999 SCT030 TX29/1312Z TN21/1305Z BECMG 1218/1221 04005KT PROB30 TEMPO 1212/1214 FEW030CB=
TAF LEAMALMERIA 121400Z 1215/1224 07014KT CAVOK TEMPO 1215/1217 22012KT PROB30 TEMPO 1215/1220 07016G26KT=
TAF LEMGMALAGA 121100Z 1212/1312 16012KT 9999 FEW020 TX32/1213Z TN22/1306Z BECMG 1221/1223 30006KT BECMG 1308/1310 16010KT=
TAF LEZLSEVILLE 121400Z 1215/1224 24008KT 9999 FEW040 PROB30 TEMPO 1215/1219 FEW040CB=
TAF LXGBGIBRALTAR 121310Z 1215/1222 09010KT 9000 HZ FEW012 PROB40 TEMPO 1218/1222 7000 HZ=
TAF LXGBGIBRALTAR 121605Z 1218/1222 07010KT 9000 HZ FEW012 PROB40 TEMPO 1218/1222 7000 HZ=
TAF LESOSAN SEBASTIAN 121400Z 1215/1224 35008KT 9999 FEW020 SCT030=
TAF LEBBBILBAO 121400Z 1215/1224 05009KT 9999 SCT020 SCT035 TEMPO 1215/1218 34012KT=
TAF LECOA CORUNA 121400Z 1215/1224 03010KT 9999 FEW030 PROB30 TEMPO 1215/1219 01010G20KT=
TAF RRFLESTSANTIAGO 121100Z 1212/1312 06009KT 9999 FEW030 TX30/1214Z TN15/1305Z PROB30 TEMPO 1214/1218 FEW035CB=
TAF LEVXVIGO 121400Z 1215/1224 22005KT 9999 FEW030 TEMPO 1215/1219 30010KT PROB30 TEMPO 1215/1218 FEW035CB=
TAF LPFRFARO 121030Z 1212/1312 18008KT CAVOK BECMG 1214/1216 27010KT BECMG 1220/1222 VRB03KT BECMG 1306/1308 09010KT=
TAF RRELPPTLISBON 121030Z 1212/1318 VRB03KT CAVOK BECMG 1215/1217 32015KT BECMG 1222/1224 VRB03KT BECMG 1314/1316 32015KT=
TAF LPPRPORTO 121030Z 1212/1312 31010KT CAVOK BECMG 1218/1220 VRB03KT=





Tschechien/Slowakei/Polen

VQLA31 LSSW 121657
MeteoSchweiz / MeteoSuisse / MeteoSvizzera / MeteoSwiss
TAF LSZHZURICH 121425Z 1215/1321 28004KT 9999 FEW045 TX26/1215Z TN14/1305Z TX27/1315Z PROB30 TEMPO 1302/1306 4000 MIFG TEMPO 1315/1321 BKN080 PROB30 TEMPO 1318/1321 -RA=
TAF LSGGGENEVA 121425Z 1215/1321 05006KT 9999 FEW040 TX27/1215Z TN15/1306Z TX28/1314Z BECMG 1218/1220 CAVOK BECMG 1308/1311 9999 FEW040=
TAF LSZALUGANO 121425Z 1215/1224 19005KT 9999 FEW050=
TAF LFSBBASLE-MULHOUSE 121100Z 1212/1312 32004KT 9999 FEW040 BECMG 1218/1220 25004KT CAVOK TEMPO 1300/1305 VRB02KT 5000 MIFG BECMG 1308/1310 27008KT FEW045=
TAF EDDSSTUTTGART 121100Z 1212/1312 28010KT 9999 SCT040 BECMG 1218/1220 25005KT BECMG 1304/1306 03004KT BKN012 TEMPO 1306/1312 4000 SHRA BKN007=
TAF RRGEDDMMUNICH 121100Z 1212/1318 27008KT 9999 SCT035 PROB40 TEMPO 1305/1313 RA BKN014 TEMPO 1313/1318 4500 SHRA PROB30 TSRA BKN025CB=
TAF RRGEDDFFRANKFURT 121100Z 1212/1318 25010KT 9999 SCT040 PROB30 TEMPO 1220/1222 SHRA SCT040CB BECMG 1221/1223 26005KT PROB30 TEMPO 1303/1306 4500 BR=
TAF RRAEDMAAUGSBURG MUHLHAUSEN 121400Z 1215/1220 27007KT CAVOK=
TAF EDMAAUGSBURG MUHLHAUSEN 121100Z 1212/1220 26008KT 9999 SCT040=
TAF EDDHHAMBURG 121100Z 1212/1318 28015G25KT 9999 SCT020 BKN030 TEMPO 1212/1215 SHRA BKN012 BECMG 1217/1219 27008KT PROB30 TEMPO 1302/1306 BKN008 BECMG 1307/1309 29015G25KT TEMPO 1307/1312 4000 SHRA BKN012 BECMG 1316/1318 28012KT=
TAF EDDNNURNBERG 121100Z 1212/1312 28012KT 9999 SCT035 BECMG 1218/1220 28006KT PROB40 TEMPO 1220/1308 RADZ BKN013=
TAF LOWLLINZ 121130Z 1212/1318 27005KT 9999 SCT035 SCT090 TX24/1215Z TN17/1223Z TEMPO 1212/1215 -SHRA SCT025 BKN045 BECMG 1215/1217 27003KT CAVOK BECMG 1305/1307 28010KT 9999 SCT025 BKN040 TEMPO 1305/1318 29015KT 6000 SHRA SCT020 BKN025=
TAF LOWWVIENNA SCHWECHAT 121130Z 1212/1318 30010KT 9999 SCT040 BKN110 TX25/1215Z TN17/1303Z BECMG 1220/1222 23005KT BECMG 1303/1305 30011KT SCT040 BKN060 TEMPO 1305/1314 30015G25KT 6000 SHRA SCT040TCU BKN060=
TAF LKKVKARLOVY VARY 121700Z 1218/1324 26007KT 9999 SCT030 BKN036 BECMG 1218/1221 7000 -RA SCT015 BKN026 TEMPO 1222/1306 4000 RA BR BKN015 OVC026 BECMG 1315/1318 9999 SCT033=
TAF LKPRPRAGUE RUZYNE 121700Z 1218/1324 27008KT CAVOK BECMG 1218/1221 7000 -RA SCT020 BKN030 TEMPO 1303/1306 4000 RA BR BKN015 OVC026 BECMG 1309/1312 31010KT BECMG 1318/1321 9999 SCT036=
TAF LKTBBRNO TURANY 121700Z 1218/1324 29006KT 9999 SCT040 BECMG 1218/1221 VRB02KT BECMG 1300/1303 24006KT 7000 -RA SCT015 BKN026 TEMPO 1306/1312 4000 RA BR BKN015 OVC026 BECMG 1318/1321 9999 SCT026=
TAF LZIBBRATISLAVA 121700Z 1218/1318 30005KT 9999 FEW030 SCT100 BECMG 1301/1303 28008KT 9999 SCT037 BKN080 PROB30 TEMPO 1305/1309 -SHRA TEMPO 1310/1316 29012G24KT -SHRA FEW020 SCT030TCU BKN080=
TAF LZTTPOPRAD 121400Z 1215/1224 06004KT 9999 FEW030 SCT040 TEMPO 1215/1219 -SHRA FEW008 FEW027TCU BKN040 BECMG 1217/1219 26007KT=
TAF EPKKKRAKOW-BALICE 121100Z 1212/1312 24008KT 9999 BKN030 TEMPO 1212/1312 27015KT 6000 SHRA SCT013 BKN020CB PROB30 TEMPO 1221/1307 2000 BR SCT007=
TAF RRAEPWAWARSAW-OKECIE 121100Z 1212/1312 27012KT 9999 SCT025 PROB40 TEMPO 1212/1217 28014G26KT 6000 SHRA SCT015 BKN020CB BECMG 1217/1219 26006KT SCT040 BECMG 1222/1224 23006KT BECMG 1303/1305 25010KT 6000 BKN010 BECMG 1307/1309 28012KT 9999 BKN020 PROB40 TEMPO 1305/1312 28014G24KT 4000 SHRA SCT006 BKN015CB=
TAF EPPOPOZNAN 121100Z 1212/1312 26010KT 9999 BKN035 PROB30 1214/1223 6000 SHRA BKN020CB BECMG 1218/1220 27005KT SCT040 PROB30 TEMPO 1303/1307 5000 BR SCT010 PROB40 1306/1312 6000 SHRA BKN020CB =
TAF EPGDGDANSK 121100Z 1212/1312 27012KT 9999 SCT030 TEMPO 1212/1312 29016G28KT 5000 SHRA SCT012 BKN020CB PROB40 1300/1306 25007KT 2000 BR SCT003 BKN007=





Balkan

VQLA32 LSSW 121849
MeteoSchweiz / MeteoSuisse / MeteoSvizzera / MeteoSwiss
TAF LSZHZURICH 121725Z 1218/1324 26007KT 9999 FEW050 TX27/1315Z TN14/1305Z BECMG 1218/1220 VRB03KT CAVOK PROB40 TEMPO 1302/1306 3000 MIFG BECMG 1308/1311 26008KT 9999 FEW050 TEMPO 1314/1324 BKN080 PROB30 TEMPO 1318/1324 -RA=
TAF LSGGGENEVA 121725Z 1218/1324 VRB02KT 9999 FEW060 TX28/1314Z TN15/1305Z BECMG 1218/1220 CAVOK BECMG 1308/1311 05007KT 9999 FEW040 BECMG 1318/1320 VRB02KT CAVOK=
TAF LFSBBASLE-MULHOUSE 121700Z 1218/1318 25006KT CAVOK BECMG 1300/1302 7000 NSC PROB30 TEMPO 1302/1305 4000 MIFG BECMG 1306/1309 27010KT 9999 FEW035 TEMPO 1315/1318 29015KT FEW053 FEW055CB=
TAF LSZALUGANO 121425Z 1215/1224 19005KT 9999 FEW050=
TAF LIMCMILAN MALPENSA 121700Z 1218/1318 34005KT CAVOK=
TAF LIMLMILAN LINATE 121700Z 1218/1318 05005KT CAVOK=
TAF RRALIMEBERGAMO ORIO AL SERI 121808Z 1219/1318 03005KT CAVOK=
TAF LIMEBERGAMO ORIO AL SERI 121700Z 1218/1318 NIL=
TAF LIPXVERONA VILLAFRANCA 121400Z 1215/1224 20005KT 9999 FEW035 BECMG 1216/1218 CAVOK=
TAF RRALIPXVERONA VILLAFRANCA 121700Z 1218/1303 01004KT CAVOK=
TAF LIPZVENICE TESSERA 121700Z 1218/1318 15010KT CAVOK BECMG 1220/1222 04005KT BECMG 1309/1311 16010KT=
TAF RRALIPBBOLZANO 121700Z 1218/1303 03005KT 9999 FEW070=
TAF LIRFROME FIUMICINO 121700Z 1218/1318 VRB05KT CAVOK TEMPO 1302/1306 5000 BR BECMG 1308/1310 21012KT TEMPO 1310/1316 BKN015=
TAF LOWIINNSBRUCK 121730Z 1218/1318 10007KT 9999 FEW060 TX23/1312Z TN14/1303Z BECMG 1219/1220 VRB02KT BECMG 1309/1311 09005KT SCT050 BKN080 TEMPO 1314/1318 VRB10KT SHRA SCT045TCU BKN070 PROB30 1314/1318 27010G25KT TSRA SCT035CB BKN050=
TAF LOWWVIENNA SCHWECHAT 121730Z 1218/1324 27007KT 9999 FEW055 BKN090 TX24/1312Z TN17/1303Z BECMG 1220/1222 23004KT BECMG 1302/1304 30011KT SCT040 BKN060 TEMPO 1304/1314 32015G25KT 7000 SHRA FEW035TCU BKN040=
TAF LOWKKLAGENFURT 121730Z 1218/1318 VRB02KT 9999 FEW060 SCT100 TX27/1314Z TN15/1303Z BECMG 1312/1314 FEW060TCU BKN100 TEMPO 1316/1318 SHRA=
TAF LJLJLJUBLJANA 121700Z 1218/1303 12005KT 9999 BKN050 PROB30 TEMPO 1218/1219 -SHRA BECMG 1218/1221 VRB02KT FEW050 BKN085=
TAF LDRIRIJEKA 121100Z 1212/1221 24004KT 9999 FEW040=
TAF LJMBMARIBOR 121700Z 1218/1303 36003KT 9999 FEW040 SCT100 BECMG 1218/1220 CAVOK=
TAF LDZAZAGREB 121700Z 1218/1318 VRB02KT 9999 SCT040 BECMG 1307/1309 24006KT PROB30 TEMPO 1312/1318 SHRA BECMG 1316/1318 03007KT=
TAF CCALYBEBELGRADE 121700Z 1218/1318 21005KT 9999 SCT040 TX29/1312Z TN16/1303Z BECMG 1301/1303 4000 BR TEMPO 1304/1306 1500 BKN005 BECMG 1306/1308 9999 NSW=
TAF RRALQSASARAJEVO 121700Z 1218/1303 VRB02KT 9999 FEW050=
TAF RRALDSPSPLIT 121700Z 1218/1318 30008KT CAVOK BECMG 1220/1222 03008KT BECMG 1310/1312 23010KT=
TAF LDDUDUBROVNIK 121700Z 1218/1318 30010KT CAVOK BECMG 1219/1220 02015KT BECMG 1307/1309 24008KT=
TAF RRELWSKSKOPJE 121730Z 1218/1318 VRB02KT 9999 SCT040 SCT100=
TAF LRARARAD 121700Z 1218/1303 VRB03KT 9999 FEW040CB BECMG 1218/1220 CAVOK=
TAF LROPBUCHAREST(OTOPENI) 121700Z 1218/1318 VRB03KT CAVOK BECMG 1310/1312 25010KT=
TAF LRCKCONSTANTA-MIHAIL KOG 121700Z 1218/1303 17006KT CAVOK=
TAF CCALBSFSOFIA 121634Z 1218/1318 VRB04KT 9999 SCT040 BKN060 TEMPO 1218/1220 FEW033CB BECMG 1221/1223 5000 BR SCT030 TEMPO 1302/1306 1200 BR SCT003 BECMG 1306/1308 30004KT 9999 SCT040 TEMPO 1312/1318 FEW033CB PROB40 1312/1316 SHRA=
TAF CCALBBGBURGAS 121649Z 1218/1303 09012KT CAVOK BECMG 1220/1222 VRB04KT=





Griechenland/T├╝rkei

VQLA33 LSSW 121851
MeteoSchweiz / MeteoSuisse / MeteoSvizzera / MeteoSwiss
TAF LSZHZURICH 121725Z 1218/1324 26007KT 9999 FEW050 TX27/1315Z TN14/1305Z BECMG 1218/1220 VRB03KT CAVOK PROB40 TEMPO 1302/1306 3000 MIFG BECMG 1308/1311 26008KT 9999 FEW050 TEMPO 1314/1324 BKN080 PROB30 TEMPO 1318/1324 -RA=
TAF LSGGGENEVA 121725Z 1218/1324 VRB02KT 9999 FEW060 TX28/1314Z TN15/1305Z BECMG 1218/1220 CAVOK BECMG 1308/1311 05007KT 9999 FEW040 BECMG 1318/1320 VRB02KT CAVOK=
TAF LFSBBASLE-MULHOUSE 121700Z 1218/1318 25006KT CAVOK BECMG 1300/1302 7000 NSC PROB30 TEMPO 1302/1305 4000 MIFG BECMG 1306/1309 27010KT 9999 FEW035 TEMPO 1315/1318 29015KT FEW053 FEW055CB=
TAF LSZALUGANO 121425Z 1215/1224 19005KT 9999 FEW050=
TAF LOWIINNSBRUCK 121730Z 1218/1318 10007KT 9999 FEW060 TX23/1312Z TN14/1303Z BECMG 1219/1220 VRB02KT BECMG 1309/1311 09005KT SCT050 BKN080 TEMPO 1314/1318 VRB10KT SHRA SCT045TCU BKN070 PROB30 1314/1318 27010G25KT TSRA SCT035CB BKN050=
TAF LOWWVIENNA SCHWECHAT 121730Z 1218/1324 27007KT 9999 FEW055 BKN090 TX24/1312Z TN17/1303Z BECMG 1220/1222 23004KT BECMG 1302/1304 30011KT SCT040 BKN060 TEMPO 1304/1314 32015G25KT 7000 SHRA FEW035TCU BKN040=
TAF LDZAZAGREB 121700Z 1218/1318 VRB02KT 9999 SCT040 BECMG 1307/1309 24006KT PROB30 TEMPO 1312/1318 SHRA BECMG 1316/1318 03007KT=
TAF CCALYBEBELGRADE 121700Z 1218/1318 21005KT 9999 SCT040 TX29/1312Z TN16/1303Z BECMG 1301/1303 4000 BR TEMPO 1304/1306 1500 BKN005 BECMG 1306/1308 9999 NSW=
TAF LDDUDUBROVNIK 121700Z 1218/1318 30010KT CAVOK BECMG 1219/1220 02015KT BECMG 1307/1309 24008KT=
TAF LIMCMILAN MALPENSA 121700Z 1218/1318 34005KT CAVOK=
TAF LIPEBOLOGNA 121700Z 1218/1318 VRB05KT CAVOK=
TAF LIPRRIMINI 121400Z 1215/1224 10014KT CAVOK BECMG 1219/1221 22004KT=
TAF RRALIPRRIMINI 121700Z 1218/1303 11010KT CAVOK BECMG 1219/1221 20003KT=
TAF LIRFROME FIUMICINO 121700Z 1218/1318 VRB05KT CAVOK TEMPO 1302/1306 5000 BR BECMG 1308/1310 21012KT TEMPO 1310/1316 BKN015=
TAF RRALIBRBRINDISI 121700Z 1218/1303 30015KT CAVOK BECMG 1221/1223 5000 BR SCT010=
TAF RRALIBDBARI 121700Z 1218/1303 VRB04KT 9999 SCT025=
TAF LGKRKERKIRA 121700Z 1218/1318 31016KT 9999 SCT020 BECMG 1222/1224 VRB05KT BECMG 1304/1306 12010KT BECMG 1310/1312 30010KT=
TAF LGZAZAKINTHOS 121700Z 1218/1303 33015KT 9999 FEW015 SCT020 PROB30 TEMPO 1218/1224 6000 RA SCT015 BKN020 BECMG 1222/1224 VRB05KT=
TAF CCALGKLKALAMATA 121700Z 1218/1303 VRB05KT //// BKN035 PROB40 TEMPO 1218/1221 6000 RA SCT010 BKN030 PROB30 TEMPO 1218/1220 3000 TSRA SCT008 FEW018CB BKN025 BECMG 1221/1223 FEW020=
TAF LGAVATHENS ELEFTHERIOS V 121700Z 1218/1318 04020KT 9999 FEW030 BECMG 1222/1224 36015KT BECMG 1307/1309 04020KT FEW020 SCT030=
TAF LGTSTHESSALONIKI MAKEDON 121700Z 1218/1318 34006KT 9999 SCT030=
TAF LGALALEXANDROUPOLIS 121400Z 1215/1224 24012KT 9999 FEW020 SCT035 BECMG 1219/1221 VRB05KT FEW020=
TAF RRELGIRIRAKLION NIKOS KAZAN 121700Z 1218/1318 32015KT 9999 FEW020=
TAF LGRPRHODOS DIAGORAS 121700Z 1218/1318 25015KT 9999 FEW020=
TAF LGSMSAMOS 121400Z 1215/1224 33022KT 9999 FEW020=
TAF LTBAISTANBUL ATATURK 121640Z 1218/1318 03012KT CAVOK BECMG 1303/1306 SCT035=
TAF LTBJIZMIR ADNAN 121640Z 1218/1318 36015KT CAVOK=
TAF LCLKLARNACA 121730Z 1218/1318 33010KT 9999 FEW020 PROB30 TEMPO 1222/1306 22008KT 5000 BR BKN008 BECMG 1306/1309 22015KT PROB30 TEMPO 1310/1316 FEW020CB BECMG 1316/1318 33008KT=





top